Terminal Aerodrome Forecast
Issued by NWS

Home | Current Version | Previous Version | Text Only | Print | Product List | Glossary On
Versions: 1 2 3 4 5 6 7 8 9 10 11 12 13 14 15 16
175
FTUS43 KDTX 270538
TAFMBS
TAF
KMBS 270538Z 2706/2806 27009KT P6SM BKN070
      TEMPO 2706/2709 -SHRA BKN025 OVC070
     FM270900 28007KT P6SM SCT040
     FM271700 30012KT P6SM BKN050
     FM272300 27008KT P6SM SCT050=

USA.gov is the U.S. government's official web portal to all federal, state and local government web resources and services.